Flight Track Log - Related Links

Times and Time Zones

All times are in EDT time to prevent confusion due to time zone crossing. See the FLG2936 flight status page for this flight to view local times or setup timezone preferences in your user account.

Time Position Orientation Groundspeed Altitude Reporting Facility
EDT Latitude Longitude Course Direction KTS MPH feet Rate Location/Type
Thu 03:58:42 PM 40.6333 -73.7500 37° Northeast 176 203 2,300  Level New York TRACON
Thu 04:00:54 PM 40.6169 -73.5858 97° East 247 284 7,600 2,505 Climbing Boston Center
Thu 04:01:00 PM 40.9138 -73.5362 37° Northeast  Level FlightAware Approximate
Thu 04:01:56 PM 40.6606 -73.5036 55° Northeast 294 338 10,400  Level Boston Center
Thu 04:02:00 PM 40.9801 -73.4699 37° Northeast  Level FlightAware Approximate
Thu 04:02:57 PM 40.7461 -73.4542 24° Northeast 324 373 12,700  Level Boston Center
Thu 04:03:00 PM 41.0494 -73.4089 33° Northeast  Level FlightAware Approximate
Thu 04:03:59 PM 40.8475 -73.4044 20° North 329 379 16,100  Level Boston Center
Thu 04:04:00 PM 40.7027 -73.7140 37° Northeast  Level FlightAware Approximate
Thu 04:05:01 PM 40.9361 -73.3600 21° North 337 388 17,000  Level Boston Center
Thu 04:06:03 PM 41.0283 -73.3269 15° North 346 398 17,000  Level Boston Center
Thu 04:07:04 PM 41.1278 -73.2992 12° North 387 445 17,000  Level Boston Center
Thu 04:08:06 PM 41.2303 -73.2342 25° Northeast 406 467 17,000  Level Boston Center
Thu 04:09:08 PM 41.3389 -73.1622 26° Northeast 386 444 17,000  Level Boston Center
Thu 04:10:10 PM 41.3875 -73.0361 63° Northeast 383 441 17,000  Level Boston Center
Thu 04:11:11 PM 41.4189 -72.8903 74° East 380 437 17,000  Level Boston Center
Thu 04:12:13 PM 41.4503 -72.7442 74° East 405 466 17,000  Level Boston Center
Thu 04:13:15 PM 41.4814 -72.6000 74° East 406 467 17,000  Level Boston Center
Thu 04:14:17 PM 41.5056 -72.4425 78° East 405 466 17,000  Level Boston Center
Thu 04:15:18 PM 41.5025 -72.2972 92° East 398 458 17,000  Level Boston Center
Thu 04:16:20 PM 41.5369 -72.1533 72° East 391 450 17,000 -48 Level Boston Center
Thu 04:17:22 PM 41.5739 -72.0133 71° East 401 461 16,900 -1,073 Descending Boston Center
Thu 04:18:23 PM 41.6142 -71.8583 71° East 411 473 14,800 -2,049 Descending Boston Center
Thu 04:19:25 PM 41.6492 -71.7228 71° East 391 450 12,700 -1,839 Descending Boston Center
Thu 04:20:27 PM 41.6831 -71.5886 71° East 361 415 11,000 -829 Descending Boston Center
Thu 04:21:28 PM 41.7106 -71.4828 71° East 307 353 11,000  Level Boston Center
Thu 04:22:30 PM 41.7633 -71.3847 54° Northeast 311 358 11,000  Level Boston Center
Thu 04:23:32 PM 41.8222 -71.3061 45° Northeast 304 350 11,000 -634 Level Boston Center
Thu 04:24:33 PM 41.8814 -71.2422 39° Northeast 278 320 9,700 -1,707 Descending Boston Center
Thu 04:25:35 PM 41.9528 -71.2064 20° North 259 298 7,500 -2,000 Descending Boston Center
Thu 04:26:36 PM 42.0122 -71.1750 21° North 233 268 5,600 -1,268 Descending Boston Center
Thu 04:27:38 PM 42.0661 -71.1500 19° North 205 236 4,900 -726 Descending Boston Center
Thu 04:28:40 PM 42.1192 -71.1242 20° North 193 222 4,100 -390 Descending Boston Center
Thu 04:29:41 PM 42.1678 -71.0997 20° North 190 219 4,100 -439 Level Boston Center
Thu 04:30:43 PM 42.2175 -71.0756 20° North 190 219 3,200 -1,024 Descending Boston Center
Thu 04:31:44 PM 42.2692 -71.0517 19° North 187 215 2,000 -1,024 Descending Boston Center
Thu 04:32:46 PM 42.3108 -71.0331 18° North 171 197 1,100 -732 Descending Boston Center
Thu 04:33:47 PM 42.3456 -71.0147 21° North 147 169 500 -590 Descending Boston Center
Thu 04:35:00 PM 42.3500 -71.0000 North  Level FlightAware Approximate

Login

Don't have an account? Register now (free) for customized features, flight alerts, and more!